Time;durP1;ratioP1;P1;durP2;ratioP2;P2;SDS_P1;SDS_P2;PMS_P1;PMS_P2;Temp;Humidity;BMP_temperature;BMP_pressure;BME280_temperature;BME280_humidity;BME280_pressure;Samples;Min_cycle;Max_cycle;Signal;HPM_P1;HPM_P2
2021/05/01 00:01:09;;;;;;;18.13;10.63;;;;;;;;;;5009497;28;20494;-90
2021/05/01 00:03:35;;;;;;;22.83;11.40;;;;;;;;;;5014204;28;20401;-88
2021/05/01 00:06:01;;;;;;;17.50;11.00;;;;;;;;;;5015763;28;20919;-87
2021/05/01 00:08:30;;;;;;;16.40;10.23;;;;;;;;;;5014118;28;20433;-87
2021/05/01 00:11:00;;;;;;;18.52;9.80;;;;;;;;;;5011969;28;20936;-87
2021/05/01 00:13:26;;;;;;;16.90;10.55;;;;;;;;;;5013070;28;20474;-87
2021/05/01 00:15:52;;;;;;;16.00;10.20;;;;;;;;;;5014376;28;20830;-87
2021/05/01 00:18:18;;;;;;;16.80;9.95;;;;;;;;;;5013063;28;20406;-87
2021/05/01 00:20:44;;;;;;;18.02;9.98;;;;;;;;;;5010517;28;20489;-87
2021/05/01 00:23:10;;;;;;;16.05;9.63;;;;;;;;;;5012036;28;20398;-87
2021/05/01 00:25:36;;;;;;;16.70;10.20;;;;;;;;;;5014440;28;20433;-87
2021/05/01 00:28:02;;;;;;;19.95;10.43;;;;;;;;;;5013114;28;20403;-87
2021/05/01 00:30:28;;;;;;;17.95;10.50;;;;;;;;;;5011738;28;20415;-87
2021/05/01 00:32:54;;;;;;;18.83;10.82;;;;;;;;;;5013858;28;20474;-87
2021/05/01 00:35:20;;;;;;;17.20;10.20;;;;;;;;;;5013510;28;20945;-87
2021/05/01 00:37:46;;;;;;;15.88;9.77;;;;;;;;;;5012205;28;20411;-86
2021/05/01 00:40:13;;;;;;;19.33;9.63;;;;;;;;;;5012641;28;20403;-87
2021/05/01 00:42:39;;;;;;;17.90;9.85;;;;;;;;;;5012924;28;20472;-87
2021/05/01 00:45:05;;;;;;;19.92;9.63;;;;;;;;;;5015721;28;20430;-87
2021/05/01 00:47:31;;;;;;;18.67;9.63;;;;;;;;;;5011891;28;20410;-87
2021/05/01 00:49:57;;;;;;;17.17;9.48;;;;;;;;;;5012061;28;20438;-86
2021/05/01 00:52:24;;;;;;;14.43;8.60;;;;;;;;;;5011820;28;20409;-87
2021/05/01 00:54:50;;;;;;;18.52;10.10;;;;;;;;;;5008800;28;20398;-87
2021/05/01 00:57:16;;;;;;;18.47;9.70;;;;;;;;;;5011618;28;20456;-87
2021/05/01 00:59:42;;;;;;;15.85;8.98;;;;;;;;;;5011412;28;20429;-87
2021/05/01 01:02:08;;;;;;;15.00;8.47;;;;;;;;;;5012207;28;20410;-87
2021/05/01 01:04:34;;;;;;;16.83;8.48;;;;;;;;;;5032218;28;20455;-87
2021/05/01 01:07:00;;;;;;;15.45;8.68;;;;;;;;;;5011170;28;20415;-89
2021/05/01 01:09:26;;;;;;;17.40;9.27;;;;;;;;;;5011625;28;20477;-88
2021/05/01 01:11:52;;;;;;;15.48;8.40;;;;;;;;;;5011616;28;20811;-87
2021/05/01 01:14:18;;;;;;;18.33;9.05;;;;;;;;;;5012145;28;20506;-87
2021/05/01 01:16:45;;;;;;;16.90;8.38;;;;;;;;;;5011523;28;20493;-87
2021/05/01 01:19:12;;;;;;;14.70;9.20;;;;;;;;;;5010544;28;20406;-87
2021/05/01 01:21:40;;;;;;;17.33;9.77;;;;;;;;;;5032967;28;20693;-87
2021/05/01 01:24:06;;;;;;;17.10;9.57;;;;;;;;;;5010309;28;20452;-88
2021/05/01 01:26:35;;;;;;;17.83;9.53;;;;;;;;;;5025714;28;20558;-86
2021/05/01 01:29:01;;;;;;;17.15;10.02;;;;;;;;;;5006877;28;20410;-87
2021/05/01 01:31:27;;;;;;;13.73;9.37;;;;;;;;;;5011464;28;20430;-88
2021/05/01 01:33:53;;;;;;;18.33;9.93;;;;;;;;;;5010322;28;20481;-87
2021/05/01 01:36:19;;;;;;;18.35;10.00;;;;;;;;;;5012356;28;20458;-88
2021/05/01 01:38:45;;;;;;;17.67;10.77;;;;;;;;;;5008948;28;20383;-86
2021/05/01 01:41:11;;;;;;;17.43;10.80;;;;;;;;;;5012144;28;20403;-87
2021/05/01 01:43:37;;;;;;;16.77;11.45;;;;;;;;;;5009884;28;20774;-86
2021/05/01 01:46:03;;;;;;;18.45;11.50;;;;;;;;;;5014211;28;20885;-86
2021/05/01 01:48:30;;;;;;;17.90;11.80;;;;;;;;;;5009982;28;20407;-87
2021/05/01 01:50:56;;;;;;;19.85;13.27;;;;;;;;;;5012400;28;20410;-87
2021/05/01 01:53:23;;;;;;;19.30;15.02;;;;;;;;;;5007290;28;20410;-87
2021/05/01 01:55:50;;;;;;;20.08;13.40;;;;;;;;;;5011691;28;20391;-87
2021/05/01 01:58:16;;;;;;;19.98;14.40;;;;;;;;;;5027513;28;20399;-87
2021/05/01 02:00:42;;;;;;;22.23;14.45;;;;;;;;;;5011376;28;20400;-87
2021/05/01 02:03:08;;;;;;;19.67;14.15;;;;;;;;;;5010985;28;20410;-86
2021/05/01 02:05:34;;;;;;;21.73;14.85;;;;;;;;;;5028859;28;21045;-89
2021/05/01 02:08:00;;;;;;;19.92;14.48;;;;;;;;;;5009113;28;20399;-87
2021/05/01 02:10:26;;;;;;;21.40;15.77;;;;;;;;;;5010204;28;20421;-86
2021/05/01 02:12:52;;;;;;;21.63;15.27;;;;;;;;;;5008038;28;20405;-86
2021/05/01 02:15:20;;;;;;;23.17;15.82;;;;;;;;;;5012536;28;20477;-86
2021/05/01 02:17:47;;;;;;;20.58;15.38;;;;;;;;;;5007092;28;20406;-87
2021/05/01 02:20:15;;;;;;;21.58;15.48;;;;;;;;;;5026937;28;20403;-87
2021/05/01 02:22:41;;;;;;;19.83;14.85;;;;;;;;;;5010600;28;20418;-90
2021/05/01 02:25:08;;;;;;;22.73;16.70;;;;;;;;;;5009797;28;20474;-87
2021/05/01 02:27:34;;;;;;;21.77;16.70;;;;;;;;;;5039341;28;20402;-87
2021/05/01 02:30:00;;;;;;;22.08;16.33;;;;;;;;;;5011586;28;20830;-86
2021/05/01 02:32:26;;;;;;;21.20;17.23;;;;;;;;;;5009930;28;20387;-87
2021/05/01 02:34:52;;;;;;;24.42;17.55;;;;;;;;;;5008146;28;20434;-88
2021/05/01 02:37:18;;;;;;;19.95;16.45;;;;;;;;;;5009196;28;20487;-87
2021/05/01 02:39:45;;;;;;;25.55;17.65;;;;;;;;;;5009804;28;20435;-86
2021/05/01 02:42:11;;;;;;;23.08;17.85;;;;;;;;;;5011400;28;20392;-87
2021/05/01 02:44:37;;;;;;;25.03;19.63;;;;;;;;;;5008188;28;20992;-86
2021/05/01 02:47:03;;;;;;;26.40;19.25;;;;;;;;;;5009502;28;20461;-89
2021/05/01 02:49:29;;;;;;;26.17;19.73;;;;;;;;;;5009662;28;20395;-86
2021/05/01 02:51:54;;;;;;;28.80;19.23;;;;;;;;;;5011925;28;20415;-87
2021/05/01 02:54:21;;;;;;;25.70;19.23;;;;;;;;;;5008694;28;20482;-86
2021/05/01 02:56:47;;;;;;;24.67;19.48;;;;;;;;;;5010178;28;20989;-86
2021/05/01 02:59:13;;;;;;;26.00;18.95;;;;;;;;;;5032141;28;20478;-88
2021/05/01 03:01:38;;;;;;;26.45;18.80;;;;;;;;;;5011137;28;20448;-87
2021/05/01 03:04:05;;;;;;;24.42;18.83;;;;;;;;;;5008785;28;20890;-87
2021/05/01 03:06:31;;;;;;;24.53;18.63;;;;;;;;;;5008914;28;20805;-87
2021/05/01 03:08:57;;;;;;;27.10;18.85;;;;;;;;;;5007050;28;20921;-87
2021/05/01 03:11:23;;;;;;;28.52;18.10;;;;;;;;;;5006938;28;20877;-87
2021/05/01 03:13:49;;;;;;;25.10;17.83;;;;;;;;;;5007864;28;20418;-87
2021/05/01 03:16:15;;;;;;;23.60;17.25;;;;;;;;;;5008628;28;20447;-87
2021/05/01 03:18:41;;;;;;;24.20;17.20;;;;;;;;;;5009054;28;20815;-86
2021/05/01 03:21:07;;;;;;;23.95;16.45;;;;;;;;;;5009734;28;20414;-87
2021/05/01 03:23:33;;;;;;;23.60;16.63;;;;;;;;;;5004238;28;20751;-86
2021/05/01 03:25:59;;;;;;;24.88;16.75;;;;;;;;;;5010625;28;20394;-86
2021/05/01 03:28:25;;;;;;;24.67;16.10;;;;;;;;;;5008628;28;20403;-87
2021/05/01 03:30:51;;;;;;;23.10;16.50;;;;;;;;;;5009422;28;20403;-87
2021/05/01 03:33:17;;;;;;;21.40;15.43;;;;;;;;;;5010678;28;20390;-87
2021/05/01 03:35:43;;;;;;;24.45;15.75;;;;;;;;;;5009118;28;20403;-86
2021/05/01 03:38:09;;;;;;;21.02;15.77;;;;;;;;;;5009601;28;20743;-87
2021/05/01 03:40:35;;;;;;;22.17;16.07;;;;;;;;;;5009119;28;20414;-86
2021/05/01 03:43:01;;;;;;;19.88;15.00;;;;;;;;;;5010293;28;20960;-86
2021/05/01 03:45:27;;;;;;;17.67;14.05;;;;;;;;;;5007514;28;20510;-86
2021/05/01 03:47:53;;;;;;;18.90;14.23;;;;;;;;;;5010054;28;20398;-86
2021/05/01 03:50:19;;;;;;;18.13;14.05;;;;;;;;;;5009265;28;20407;-87
2021/05/01 03:52:45;;;;;;;19.50;13.82;;;;;;;;;;5009725;28;20383;-88
2021/05/01 03:55:11;;;;;;;17.85;12.93;;;;;;;;;;5025472;28;20763;-86
2021/05/01 03:57:37;;;;;;;18.75;12.60;;;;;;;;;;5009605;28;20493;-86
2021/05/01 04:00:04;;;;;;;16.50;12.70;;;;;;;;;;5009654;28;20505;-87
2021/05/01 04:02:30;;;;;;;16.25;12.60;;;;;;;;;;5011345;28;20406;-89
2021/05/01 04:04:56;;;;;;;18.40;13.43;;;;;;;;;;5016361;28;20407;-86
2021/05/01 04:07:22;;;;;;;16.65;13.13;;;;;;;;;;5010446;28;20436;-86
2021/05/01 04:09:48;;;;;;;17.67;13.07;;;;;;;;;;5009999;28;20417;-86
2021/05/01 04:12:14;;;;;;;19.98;12.18;;;;;;;;;;5016742;28;20374;-88
2021/05/01 04:14:40;;;;;;;18.50;13.93;;;;;;;;;;5009862;28;20874;-86
2021/05/01 04:17:06;;;;;;;18.33;13.23;;;;;;;;;;5010295;28;20875;-87
2021/05/01 04:19:32;;;;;;;19.80;12.85;;;;;;;;;;5009438;28;20809;-86
2021/05/01 04:22:04;;;;;;;16.88;12.15;;;;;;;;;;5007442;28;20395;-86
2021/05/01 04:24:31;;;;;;;15.85;11.93;;;;;;;;;;5017889;28;20894;-87
2021/05/01 04:26:57;;;;;;;15.95;11.93;;;;;;;;;;5027095;28;20402;-86
2021/05/01 04:29:23;;;;;;;16.65;11.80;;;;;;;;;;5016957;28;20396;-86
2021/05/01 04:31:49;;;;;;;18.57;11.93;;;;;;;;;;5017109;28;20433;-86
2021/05/01 04:34:15;;;;;;;14.38;10.85;;;;;;;;;;5012349;28;20399;-87
2021/05/01 04:36:41;;;;;;;16.30;10.77;;;;;;;;;;5030544;28;20422;-86
2021/05/01 04:39:10;;;;;;;14.37;10.50;;;;;;;;;;5012891;28;20482;-87
2021/05/01 04:41:36;;;;;;;16.02;10.88;;;;;;;;;;5009436;28;20412;-86
2021/05/01 04:44:02;;;;;;;14.27;10.73;;;;;;;;;;5013118;28;20446;-87
2021/05/01 04:46:28;;;;;;;15.55;10.80;;;;;;;;;;5010403;28;20447;-87
2021/05/01 04:48:54;;;;;;;16.67;11.13;;;;;;;;;;5011499;28;20834;-86
2021/05/01 04:51:20;;;;;;;16.93;11.27;;;;;;;;;;5009569;28;20411;-87
2021/05/01 04:53:46;;;;;;;16.55;11.13;;;;;;;;;;5009182;28;20413;-87
2021/05/01 04:56:12;;;;;;;13.65;11.15;;;;;;;;;;5010302;28;20408;-88
2021/05/01 04:58:38;;;;;;;16.90;11.77;;;;;;;;;;5011014;28;20480;-86
2021/05/01 05:01:05;;;;;;;18.40;11.68;;;;;;;;;;5010817;28;20411;-87
2021/05/01 05:03:30;;;;;;;15.10;12.30;;;;;;;;;;5009786;28;20428;-86
2021/05/01 05:05:56;;;;;;;17.90;12.20;;;;;;;;;;5005303;28;20415;-86
2021/05/01 05:08:22;;;;;;;18.60;12.80;;;;;;;;;;5011741;28;20909;-88
2021/05/01 05:10:48;;;;;;;17.52;13.07;;;;;;;;;;5025870;28;20459;-86
2021/05/01 05:13:33;;;;;;;17.48;12.73;;;;;;;;;;5018331;28;20476;-87
2021/05/01 05:15:59;;;;;;;18.23;13.20;;;;;;;;;;5035464;28;20936;-85
2021/05/01 05:18:25;;;;;;;16.20;12.10;;;;;;;;;;5012702;28;20395;-86
2021/05/01 05:20:51;;;;;;;18.57;12.90;;;;;;;;;;5011790;28;20414;-87
2021/05/01 05:23:17;;;;;;;19.58;13.27;;;;;;;;;;5009865;28;20403;-86
2021/05/01 05:25:43;;;;;;;18.58;13.02;;;;;;;;;;5012176;28;20412;-87
2021/05/01 05:28:09;;;;;;;19.20;12.60;;;;;;;;;;5012358;28;20909;-87
2021/05/01 05:30:35;;;;;;;17.90;13.40;;;;;;;;;;5013458;28;20418;-87
2021/05/01 05:33:01;;;;;;;18.30;13.10;;;;;;;;;;5016364;28;20407;-86
2021/05/01 05:35:28;;;;;;;19.25;13.18;;;;;;;;;;5016149;28;20391;-86
2021/05/01 05:37:54;;;;;;;17.42;12.43;;;;;;;;;;5008165;28;20494;-86
2021/05/01 05:40:20;;;;;;;17.52;12.23;;;;;;;;;;5015814;28;20469;-86
2021/05/01 05:42:49;;;;;;;19.07;13.80;;;;;;;;;;5015766;28;20403;-86
2021/05/01 05:45:22;;;;;;;17.85;13.50;;;;;;;;;;5016414;28;20922;-86
2021/05/01 05:47:48;;;;;;;19.35;13.63;;;;;;;;;;5019043;28;20507;-87
2021/05/01 05:50:15;;;;;;;17.65;12.77;;;;;;;;;;5015282;28;20419;-86
2021/05/01 05:52:41;;;;;;;17.90;12.85;;;;;;;;;;5015855;28;20401;-86
2021/05/01 05:55:08;;;;;;;16.50;12.50;;;;;;;;;;5014808;28;20929;-88
2021/05/01 05:57:36;;;;;;;18.35;12.82;;;;;;;;;;5014809;28;20403;-85
2021/05/01 06:00:02;;;;;;;17.25;13.07;;;;;;;;;;5015574;28;20795;-86
2021/05/01 06:02:28;;;;;;;16.67;12.18;;;;;;;;;;5006646;28;21120;-86
2021/05/01 06:04:58;;;;;;;19.98;13.05;;;;;;;;;;5009666;28;20414;-86
2021/05/01 06:07:27;;;;;;;16.40;12.60;;;;;;;;;;5014644;28;20877;-86
2021/05/01 06:09:54;;;;;;;17.35;12.73;;;;;;;;;;5033390;28;20386;-86
2021/05/01 06:12:20;;;;;;;21.35;15.95;;;;;;;;;;5011930;28;20770;-86
2021/05/01 06:14:47;;;;;;;18.15;13.80;;;;;;;;;;5015545;28;20402;-87
2021/05/01 06:17:14;;;;;;;19.33;12.95;;;;;;;;;;5014870;28;20890;-86
2021/05/01 06:19:41;;;;;;;20.02;14.07;;;;;;;;;;5015205;28;20457;-86
2021/05/01 06:22:07;;;;;;;21.02;15.70;;;;;;;;;;5020427;28;20422;-85
2021/05/01 06:24:33;;;;;;;26.05;16.00;;;;;;;;;;5031952;28;20391;-87
2021/05/01 06:27:00;;;;;;;23.30;15.90;;;;;;;;;;5015754;28;20823;-87
2021/05/01 06:29:26;;;;;;;19.45;14.95;;;;;;;;;;5014799;28;20403;-86
2021/05/01 06:31:53;;;;;;;22.63;15.38;;;;;;;;;;5008755;28;20447;-85
2021/05/01 06:34:19;;;;;;;19.48;15.00;;;;;;;;;;5003532;28;20439;-86
2021/05/01 06:36:46;;;;;;;19.88;14.32;;;;;;;;;;5009923;28;20401;-84
2021/05/01 06:39:13;;;;;;;19.85;14.40;;;;;;;;;;5010481;28;20797;-87
2021/05/01 06:41:51;;;;;;;16.25;13.15;;;;;;;;;;5012880;28;20404;-85
2021/05/01 06:44:19;;;;;;;20.25;14.13;;;;;;;;;;5014697;28;20414;-86
2021/05/01 06:46:47;;;;;;;20.35;13.75;;;;;;;;;;5021776;28;20401;-86
2021/05/01 06:49:14;;;;;;;17.20;12.70;;;;;;;;;;5014259;28;20418;-86
2021/05/01 06:51:40;;;;;;;21.85;13.25;;;;;;;;;;5014188;28;20413;-85
2021/05/01 06:54:08;;;;;;;17.30;12.77;;;;;;;;;;5010230;28;20880;-85
2021/05/01 06:56:34;;;;;;;17.50;13.13;;;;;;;;;;5011952;28;20475;-88
2021/05/01 06:59:03;;;;;;;17.40;12.88;;;;;;;;;;5011088;28;20531;-88
2021/05/01 07:01:30;;;;;;;17.27;13.13;;;;;;;;;;5021375;28;20549;-87
2021/05/01 07:03:56;;;;;;;21.15;13.45;;;;;;;;;;5010773;28;20925;-86
2021/05/01 07:06:22;;;;;;;19.17;12.90;;;;;;;;;;5011591;28;20465;-86
2021/05/01 07:08:48;;;;;;;17.88;12.55;;;;;;;;;;5013700;28;20409;-88
2021/05/01 07:11:14;;;;;;;16.45;11.73;;;;;;;;;;5011085;28;20414;-88
2021/05/01 07:13:41;;;;;;;18.95;11.68;;;;;;;;;;5009922;28;21035;-88
2021/05/01 07:16:12;;;;;;;14.40;11.05;;;;;;;;;;5006724;28;20423;-87
2021/05/01 07:18:40;;;;;;;14.55;11.00;;;;;;;;;;5007112;28;20429;-90
2021/05/01 07:21:07;;;;;;;14.43;10.73;;;;;;;;;;5004718;28;20457;-90
2021/05/01 07:23:33;;;;;;;14.43;11.90;;;;;;;;;;5001510;28;20412;-89
2021/05/01 07:26:00;;;;;;;15.48;11.40;;;;;;;;;;5008125;28;20426;-87
2021/05/01 07:28:27;;;;;;;17.33;12.27;;;;;;;;;;5009055;28;20431;-87
2021/05/01 07:30:54;;;;;;;17.75;12.38;;;;;;;;;;5010969;28;20413;-88
2021/05/01 07:33:57;;;;;;;17.70;12.35;;;;;;;;;;5010529;28;20418;-85
2021/05/01 07:36:39;;;;;;;16.55;11.98;;;;;;;;;;4928001;29;20411;-89
2021/05/01 07:39:06;;;;;;;18.13;11.77;;;;;;;;;;5012545;28;20415;-88
2021/05/01 07:41:33;;;;;;;17.05;11.90;;;;;;;;;;5008338;28;20425;-86
2021/05/01 07:44:00;;;;;;;17.05;10.73;;;;;;;;;;5031285;28;20429;-88
2021/05/01 07:46:28;;;;;;;15.93;11.18;;;;;;;;;;5007597;28;20419;-85
2021/05/01 07:48:55;;;;;;;17.33;10.20;;;;;;;;;;5006240;28;20969;-90
2021/05/01 07:51:23;;;;;;;14.95;9.43;;;;;;;;;;5021550;28;20420;-85
2021/05/01 07:53:49;;;;;;;16.15;8.95;;;;;;;;;;5030828;28;20882;-87
2021/05/01 07:56:15;;;;;;;12.40;7.18;;;;;;;;;;5015149;28;20779;-89
2021/05/01 07:58:41;;;;;;;13.40;6.85;;;;;;;;;;5026042;28;21140;-86
2021/05/01 08:01:07;;;;;;;12.65;6.45;;;;;;;;;;5016885;28;20515;-86
2021/05/01 08:03:34;;;;;;;12.88;6.97;;;;;;;;;;5013580;28;21357;-88
2021/05/01 08:06:00;;;;;;;11.07;6.77;;;;;;;;;;5012314;28;20423;-88
2021/05/01 08:08:26;;;;;;;10.88;6.50;;;;;;;;;;5010615;28;20403;-90
2021/05/01 08:10:52;;;;;;;14.80;6.97;;;;;;;;;;5017572;28;20415;-87
2021/05/01 08:13:19;;;;;;;13.13;7.03;;;;;;;;;;5018364;28;20398;-89
2021/05/01 08:15:45;;;;;;;11.73;5.88;;;;;;;;;;5045532;28;20859;-87
2021/05/01 08:18:11;;;;;;;11.35;6.03;;;;;;;;;;5017412;28;21056;-89
2021/05/01 08:20:37;;;;;;;12.38;6.43;;;;;;;;;;5031534;28;20917;-90
2021/05/01 08:23:03;;;;;;;14.25;6.60;;;;;;;;;;5037384;28;20397;-87
2021/05/01 08:25:32;;;;;;;12.52;7.25;;;;;;;;;;5023587;28;20416;-88
2021/05/01 08:27:58;;;;;;;10.65;6.30;;;;;;;;;;5014632;28;20398;-91
2021/05/01 08:30:25;;;;;;;12.77;6.47;;;;;;;;;;5032688;28;20473;-90
2021/05/01 08:32:52;;;;;;;10.73;6.40;;;;;;;;;;5012934;28;20410;-92
2021/05/01 08:35:18;;;;;;;13.70;6.03;;;;;;;;;;5012097;28;20911;-86
2021/05/01 08:37:45;;;;;;;10.88;5.80;;;;;;;;;;5017093;28;20395;-86
2021/05/01 08:40:12;;;;;;;10.32;5.53;;;;;;;;;;5014898;28;20441;-90
2021/05/01 08:42:41;;;;;;;9.15;5.68;;;;;;;;;;5026360;28;20482;-88
2021/05/01 08:45:09;;;;;;;9.27;5.88;;;;;;;;;;5014708;28;20744;-89
2021/05/01 08:47:39;;;;;;;11.50;5.70;;;;;;;;;;5013648;28;20452;-87
2021/05/01 08:50:07;;;;;;;10.98;5.70;;;;;;;;;;5007363;28;20404;-86
2021/05/01 08:52:35;;;;;;;10.85;5.60;;;;;;;;;;5011670;28;20395;-91
2021/05/01 08:55:01;;;;;;;11.18;5.43;;;;;;;;;;5007327;28;20412;-89
2021/05/01 08:57:29;;;;;;;10.37;5.53;;;;;;;;;;5011252;28;20450;-89
2021/05/01 08:59:58;;;;;;;10.63;5.40;;;;;;;;;;5018864;28;20479;-92
2021/05/01 09:02:25;;;;;;;11.40;5.82;;;;;;;;;;5008944;28;20410;-90
2021/05/01 09:04:52;;;;;;;9.35;5.53;;;;;;;;;;5016948;28;20509;-93
2021/05/01 09:07:18;;;;;;;10.88;5.60;;;;;;;;;;5018052;28;20805;-91
2021/05/01 09:09:52;;;;;;;10.35;5.40;;;;;;;;;;5031451;28;20383;-92
2021/05/01 09:12:34;;;;;;;10.47;6.37;;;;;;;;;;5007245;28;20413;-92
2021/05/01 09:15:01;;;;;;;10.90;5.95;;;;;;;;;;5008847;28;20414;-91
2021/05/01 09:17:27;;;;;;;10.90;5.72;;;;;;;;;;5017145;28;20395;-92
2021/05/01 09:20:00;;;;;;;10.73;6.43;;;;;;;;;;5018072;28;20395;-91
2021/05/01 09:22:28;;;;;;;10.48;5.97;;;;;;;;;;4998866;28;22265;-93
2021/05/01 09:25:04;;;;;;;13.75;6.55;;;;;;;;;;4997546;28;20369;-92
2021/05/01 09:27:31;;;;;;;8.55;5.53;;;;;;;;;;5012000;28;20484;-93
2021/05/01 09:29:58;;;;;;;8.75;5.78;;;;;;;;;;5004295;28;20434;-90
2021/05/01 09:32:27;;;;;;;9.85;5.30;;;;;;;;;;5020264;28;20403;-91
2021/05/01 09:34:54;;;;;;;10.75;5.43;;;;;;;;;;5014801;28;20389;-90
2021/05/01 09:37:22;;;;;;;10.32;5.30;;;;;;;;;;5012310;28;20399;-92
2021/05/01 09:39:55;;;;;;;12.20;5.60;;;;;;;;;;5029006;28;20415;-93
2021/05/01 09:42:22;;;;;;;11.57;5.95;;;;;;;;;;5015547;28;20437;-90
2021/05/01 09:45:04;;;;;;;15.20;5.65;;;;;;;;;;5016645;28;20506;-92
2021/05/01 09:47:30;;;;;;;11.05;5.30;;;;;;;;;;5015105;28;20440;-87
2021/05/01 09:49:57;;;;;;;8.70;5.10;;;;;;;;;;5017934;28;20449;-92
2021/05/01 09:52:23;;;;;;;10.27;5.47;;;;;;;;;;5012641;28;20411;-91
2021/05/01 09:54:51;;;;;;;10.20;5.50;;;;;;;;;;5023191;28;20391;-91
2021/05/01 09:57:19;;;;;;;11.13;6.80;;;;;;;;;;4994598;28;20491;-91
2021/05/01 09:59:46;;;;;;;14.18;7.18;;;;;;;;;;4985865;28;20468;-90
2021/05/01 10:02:32;;;;;;;10.98;6.90;;;;;;;;;;4985031;28;20398;-87
2021/05/01 10:05:01;;;;;;;11.55;6.93;;;;;;;;;;4974989;28;20529;-83
2021/05/01 10:07:27;;;;;;;12.68;6.85;;;;;;;;;;4972159;28;20578;-87
2021/05/01 10:09:56;;;;;;;12.25;7.13;;;;;;;;;;5002831;28;20398;-89
2021/05/01 10:12:22;;;;;;;12.38;6.90;;;;;;;;;;5011885;28;20386;-90
2021/05/01 10:14:52;;;;;;;11.20;6.53;;;;;;;;;;4984509;28;20406;-90
2021/05/01 10:17:22;;;;;;;10.15;5.60;;;;;;;;;;4981783;28;20417;-83
2021/05/01 10:19:48;;;;;;;8.68;5.20;;;;;;;;;;4977629;28;20391;-92
2021/05/01 10:22:34;;;;;;;9.40;5.10;;;;;;;;;;4981666;28;20491;-91
2021/05/01 10:25:07;;;;;;;8.25;4.55;;;;;;;;;;4993141;28;20448;-91
2021/05/01 10:27:44;;;;;;;8.52;4.70;;;;;;;;;;5005019;28;20873;-92
2021/05/01 10:30:17;;;;;;;7.82;4.75;;;;;;;;;;5022697;28;20899;-92
2021/05/01 10:32:46;;;;;;;7.53;4.60;;;;;;;;;;5018549;28;20396;-91
2021/05/01 10:35:12;;;;;;;6.80;4.75;;;;;;;;;;5013341;28;20400;-94
2021/05/01 10:37:43;;;;;;;6.85;4.68;;;;;;;;;;5021735;28;20406;-94
2021/05/01 10:40:09;;;;;;;6.55;4.55;;;;;;;;;;5010319;28;20782;-87
2021/05/01 10:42:35;;;;;;;7.63;4.70;;;;;;;;;;5011411;28;20406;-91
2021/05/01 10:45:02;;;;;;;9.18;4.95;;;;;;;;;;5019351;28;20435;-90
2021/05/01 10:47:28;;;;;;;8.68;4.97;;;;;;;;;;5019270;28;20399;-91
2021/05/01 10:49:58;;;;;;;7.97;5.32;;;;;;;;;;5023130;28;20977;-94
2021/05/01 10:52:24;;;;;;;8.52;5.57;;;;;;;;;;4994692;28;20421;-91
2021/05/01 10:54:57;;;;;;;8.50;5.90;;;;;;;;;;4975132;28;20418;-89
2021/05/01 10:57:23;;;;;;;9.13;6.18;;;;;;;;;;4976306;28;20472;-93
2021/05/01 10:59:56;;;;;;;12.07;6.10;;;;;;;;;;4979894;28;20482;-90
2021/05/01 11:02:27;;;;;;;10.23;5.70;;;;;;;;;;4986726;28;20391;-90
2021/05/01 11:04:57;;;;;;;8.88;6.18;;;;;;;;;;4983899;28;20429;-87
2021/05/01 11:07:41;;;;;;;9.32;5.93;;;;;;;;;;4975518;28;20871;-91
2021/05/01 11:10:10;;;;;;;9.20;6.00;;;;;;;;;;4981738;28;20406;-93
2021/05/01 11:12:37;;;;;;;9.60;5.50;;;;;;;;;;4977698;28;20483;-88
2021/05/01 11:15:03;;;;;;;7.78;5.47;;;;;;;;;;4995483;28;20408;-86
2021/05/01 11:17:32;;;;;;;8.57;5.45;;;;;;;;;;4991621;28;20496;-93
2021/05/01 11:19:59;;;;;;;9.85;5.40;;;;;;;;;;4978674;28;20934;-94
2021/05/01 11:22:27;;;;;;;9.70;4.63;;;;;;;;;;4984035;28;20395;-90
2021/05/01 11:24:54;;;;;;;9.80;4.67;;;;;;;;;;5005690;28;20409;-89
2021/05/01 11:27:21;;;;;;;7.18;4.40;;;;;;;;;;5015298;28;20422;-92
2021/05/01 11:29:47;;;;;;;8.63;4.55;;;;;;;;;;5016276;28;20381;-90
2021/05/01 11:32:13;;;;;;;7.78;5.07;;;;;;;;;;5015135;28;20754;-84
2021/05/01 11:34:39;;;;;;;8.20;5.50;;;;;;;;;;5013902;28;20403;-88
2021/05/01 11:37:06;;;;;;;9.47;5.77;;;;;;;;;;5006056;28;20393;-90
2021/05/01 11:39:36;;;;;;;8.63;5.53;;;;;;;;;;5005159;28;20477;-92
2021/05/01 11:42:02;;;;;;;9.80;5.43;;;;;;;;;;5015277;28;20412;-88
2021/05/01 11:44:30;;;;;;;7.22;4.43;;;;;;;;;;5033394;28;20419;-93
2021/05/01 11:47:13;;;;;;;8.80;5.03;;;;;;;;;;5014878;28;20415;-91
2021/05/01 11:49:40;;;;;;;7.20;4.38;;;;;;;;;;5013940;28;20545;-92
2021/05/01 11:52:06;;;;;;;9.32;4.70;;;;;;;;;;5017257;28;20414;-90
2021/05/01 11:54:51;;;;;;;8.77;4.60;;;;;;;;;;5003739;28;20601;-92
2021/05/01 11:57:24;;;;;;;7.70;3.95;;;;;;;;;;5012335;28;20753;-92
2021/05/01 11:59:52;;;;;;;7.88;4.07;;;;;;;;;;5017009;28;20384;-90
2021/05/01 12:02:19;;;;;;;7.88;4.25;;;;;;;;;;5010750;28;20476;-86
2021/05/01 12:04:53;;;;;;;7.45;4.47;;;;;;;;;;5013646;28;20490;-86
2021/05/01 12:07:30;;;;;;;8.30;4.53;;;;;;;;;;5025860;28;20406;-87
2021/05/01 12:10:00;;;;;;;8.40;4.63;;;;;;;;;;5016025;28;20731;-87
2021/05/01 12:12:26;;;;;;;7.93;5.20;;;;;;;;;;5022499;28;20537;-84
2021/05/01 12:15:00;;;;;;;10.35;5.75;;;;;;;;;;5015660;28;20917;-89
2021/05/01 12:17:31;;;;;;;11.55;6.18;;;;;;;;;;5007950;28;20502;-90
2021/05/01 12:20:07;;;;;;;12.65;6.65;;;;;;;;;;5015088;28;20474;-88
2021/05/01 12:22:34;;;;;;;10.02;5.97;;;;;;;;;;5014849;28;20936;-91
2021/05/01 12:25:00;;;;;;;9.95;6.50;;;;;;;;;;5013514;28;20471;-84
2021/05/01 12:27:45;;;;;;;11.02;7.15;;;;;;;;;;5014393;28;21119;-85
2021/05/01 12:30:31;;;;;;;12.02;7.00;;;;;;;;;;5022980;28;20409;-90
2021/05/01 12:32:57;;;;;;;10.35;6.70;;;;;;;;;;5016617;28;20398;-90
2021/05/01 12:35:23;;;;;;;10.82;7.05;;;;;;;;;;5009500;28;20753;-90
2021/05/01 12:37:49;;;;;;;11.00;6.72;;;;;;;;;;5014624;28;20391;-92
2021/05/01 12:40:15;;;;;;;10.20;6.23;;;;;;;;;;5004488;28;20389;-91
2021/05/01 12:42:41;;;;;;;10.45;6.20;;;;;;;;;;5015671;28;20393;-92
2021/05/01 12:45:26;;;;;;;8.25;6.13;;;;;;;;;;5016174;28;20423;-92
2021/05/01 12:47:53;;;;;;;10.43;6.67;;;;;;;;;;5028520;28;20406;-92
2021/05/01 12:50:23;;;;;;;10.75;6.72;;;;;;;;;;5007623;28;20862;-92
2021/05/01 12:52:49;;;;;;;9.77;6.22;;;;;;;;;;5010480;28;20395;-92
2021/05/01 12:55:18;;;;;;;9.32;6.20;;;;;;;;;;5017011;28;20387;-92
2021/05/01 12:57:44;;;;;;;12.95;6.65;;;;;;;;;;5021397;28;20395;-89
2021/05/01 13:00:31;;;;;;;10.90;6.90;;;;;;;;;;5023691;28;20512;-90
2021/05/01 13:03:24;;;;;;;9.98;6.50;;;;;;;;;;5020138;28;20394;-91
2021/05/01 13:05:57;;;;;;;9.93;6.43;;;;;;;;;;5016508;28;20372;-85
2021/05/01 13:08:25;;;;;;;10.95;5.88;;;;;;;;;;5031844;28;20388;-90
2021/05/01 13:10:54;;;;;;;9.23;6.17;;;;;;;;;;5016955;28;20473;-85
2021/05/01 13:13:31;;;;;;;10.07;5.90;;;;;;;;;;5017480;28;20750;-89
2021/05/01 13:15:58;;;;;;;8.90;5.10;;;;;;;;;;5016577;28;20481;-91
2021/05/01 13:18:24;;;;;;;8.95;5.05;;;;;;;;;;5018030;28;20445;-89
2021/05/01 13:21:04;;;;;;;7.22;4.82;;;;;;;;;;5017446;28;20387;-88
2021/05/01 13:23:40;;;;;;;8.23;5.30;;;;;;;;;;5033856;28;20427;-86
2021/05/01 13:26:17;;;;;;;7.97;5.15;;;;;;;;;;5017083;28;20403;-89
2021/05/01 13:28:47;;;;;;;7.82;5.18;;;;;;;;;;5033858;28;20402;-91
2021/05/01 13:31:14;;;;;;;9.95;5.57;;;;;;;;;;5014343;28;20426;-87
2021/05/01 13:33:41;;;;;;;8.85;5.38;;;;;;;;;;5006254;28;20400;-89
2021/05/01 13:36:07;;;;;;;7.20;4.80;;;;;;;;;;5028532;28;20459;-85
2021/05/01 13:38:35;;;;;;;9.05;4.90;;;;;;;;;;5005410;28;20756;-91
2021/05/01 13:41:10;;;;;;;6.80;4.63;;;;;;;;;;5015710;28;20937;-90
2021/05/01 13:43:44;;;;;;;6.35;4.20;;;;;;;;;;5015357;28;20450;-90
2021/05/01 13:46:10;;;;;;;7.75;4.53;;;;;;;;;;5016848;28;20829;-87
2021/05/01 13:48:41;;;;;;;8.65;4.90;;;;;;;;;;5013050;28;20400;-91
2021/05/01 13:51:10;;;;;;;6.70;4.60;;;;;;;;;;5016761;28;20410;-91
2021/05/01 13:53:36;;;;;;;8.83;4.23;;;;;;;;;;5014123;28;20474;-85
2021/05/01 13:56:02;;;;;;;8.25;4.78;;;;;;;;;;4996814;28;20381;-83
2021/05/01 13:58:30;;;;;;;8.52;4.55;;;;;;;;;;5024434;28;20420;-81
2021/05/01 14:00:58;;;;;;;7.57;4.53;;;;;;;;;;5029929;28;20478;-86
2021/05/01 14:03:32;;;;;;;7.28;3.90;;;;;;;;;;5017647;28;20413;-91
2021/05/01 14:05:59;;;;;;;7.22;4.22;;;;;;;;;;5017489;28;20447;-90
2021/05/01 14:08:25;;;;;;;6.85;4.05;;;;;;;;;;5011967;28;20407;-83
2021/05/01 14:10:56;;;;;;;8.48;4.45;;;;;;;;;;5027712;28;20547;-84
2021/05/01 14:13:30;;;;;;;7.57;4.13;;;;;;;;;;5013088;28;20406;-88
2021/05/01 14:15:58;;;;;;;6.55;4.28;;;;;;;;;;5032643;28;20405;-90
2021/05/01 14:18:25;;;;;;;7.68;4.25;;;;;;;;;;5012955;28;20921;-85
2021/05/01 14:21:02;;;;;;;8.38;4.22;;;;;;;;;;5013808;28;20759;-88
2021/05/01 14:23:29;;;;;;;6.88;4.10;;;;;;;;;;5004783;28;20824;-90
2021/05/01 14:25:55;;;;;;;6.68;4.35;;;;;;;;;;5016881;28;20402;-86
2021/05/01 14:28:27;;;;;;;8.63;4.95;;;;;;;;;;5033599;28;20445;-90
2021/05/01 14:33:25;;;;;;;8.73;4.60;;;;;;;;;;5021727;28;20401;-90